Terminal Aerodrome Forecast
Issued by NWS

Home | Current Version | Previous Version | Text Only | Print | Product List | Glossary On
Versions: 1 2 3 4 5 6 7 8 9 10 11 12 13 14 15 16 17 18 19 20 21 22 23 24 25
000
FTUS41 KBOX 251124
TAFHYA
TAF
KHYA 251124Z 2512/2612 28005KT 4SM BR BKN008
     FM251300 26004KT P6SM SCT015
     FM251400 VRB03KT P6SM FEW025 SCT080
     FM251700 17007KT P6SM FEW090
     FM252000 22011G20KT P6SM FEW200
     FM260000 25009KT P6SM FEW150
     FM260800 29007KT P6SM FEW250=

USA.gov is the U.S. government's official web portal to all federal, state and local government web resources and services.